Time;durP1;ratioP1;P1;durP2;ratioP2;P2;SDS_P1;SDS_P2;PMS_P1;PMS_P2;Temp;Humidity;BMP_temperature;BMP_pressure;BME280_temperature;BME280_humidity;BME280_pressure;Samples;Min_cycle;Max_cycle;Signal;HPM_P1;HPM_P2
2022/07/15 00:00:43;;;;;;;9.65;3.33;;;666.00;1689.60;;;;;;5096125;28;20082;-77
2022/07/15 00:03:09;;;;;;;9.45;3.47;;;665.60;1715.20;;;;;;5095705;28;20380;-77
2022/07/15 00:05:34;;;;;;;10.45;3.33;;;640.70;1715.20;;;;;;5068100;28;20466;-77
2022/07/15 00:08:03;;;;;;;12.32;3.78;;;640.50;1740.80;;;;;;5073516;28;20111;-77
2022/07/15 00:10:29;;;;;;;9.00;3.58;;;640.20;1766.40;;;;;;5069583;28;20020;-78
2022/07/15 00:12:57;;;;;;;7.55;3.50;;;640.20;1792.00;;;;;;5088703;28;20020;-78
2022/07/15 00:15:25;;;;;;;7.45;3.70;;;640.10;1792.00;;;;;;5095864;28;20032;-80
2022/07/15 00:17:52;;;;;;;9.90;3.72;;;640.10;1792.00;;;;;;5083109;28;20443;-80
2022/07/15 00:20:19;;;;;;;9.85;3.08;;;640.20;1792.00;;;;;;5094828;28;20031;-80
2022/07/15 00:22:46;;;;;;;11.00;3.20;;;640.10;1792.00;;;;;;5095825;28;20020;-78
2022/07/15 00:25:13;;;;;;;8.68;3.42;;;640.20;1792.00;;;;;;5087122;28;20032;-78
2022/07/15 00:27:52;;;;;;;9.05;3.47;;;640.00;1817.60;;;;;;5095679;28;20024;-78
2022/07/15 00:30:18;;;;;;;8.10;3.42;;;615.20;1817.60;;;;;;5095221;28;20434;-78
2022/07/15 00:32:43;;;;;;;8.90;3.70;;;614.90;1843.20;;;;;;5094893;28;20032;-78
2022/07/15 00:35:09;;;;;;;10.52;4.78;;;614.80;1843.20;;;;;;5077074;28;20027;-77
2022/07/15 00:37:35;;;;;;;10.82;5.07;;;614.80;1843.20;;;;;;5077058;28;20016;-78
2022/07/15 00:40:01;;;;;;;7.18;4.15;;;614.80;1868.80;;;;;;5095153;28;20098;-78
2022/07/15 00:42:45;;;;;;;10.60;5.28;;;614.70;1868.80;;;;;;5076555;28;20028;-79
2022/07/15 00:45:16;;;;;;;10.27;5.32;;;614.60;1894.40;;;;;;5076539;28;20073;-78
2022/07/15 00:47:43;;;;;;;10.73;5.43;;;614.40;1920.00;;;;;;5095212;28;20072;-78
2022/07/15 00:50:11;;;;;;;14.88;5.55;;;614.40;1920.00;;;;;;5095120;28;20066;-79
2022/07/15 00:52:40;;;;;;;8.52;5.22;;;614.40;1920.00;;;;;;5095010;28;20024;-80
2022/07/15 00:55:08;;;;;;;7.68;4.63;;;614.40;1920.00;;;;;;5094741;28;20028;-79
2022/07/15 00:57:37;;;;;;;7.25;4.85;;;614.40;1920.00;;;;;;5092652;28;20058;-80
2022/07/15 01:00:05;;;;;;;8.95;5.05;;;614.40;1945.60;;;;;;5094929;28;20087;-79
2022/07/15 01:02:33;;;;;;;8.85;5.00;;;614.50;1945.60;;;;;;5076687;28;20027;-80
2022/07/15 01:05:02;;;;;;;6.15;4.38;;;614.40;1945.60;;;;;;5094712;28;20027;-79
2022/07/15 01:07:29;;;;;;;14.02;5.93;;;589.70;1996.80;;;;;;5094593;28;20487;-79
2022/07/15 01:09:55;;;;;;;12.75;6.53;;;589.50;1996.80;;;;;;5094657;28;20020;-79
2022/07/15 01:12:21;;;;;;;16.00;7.47;;;589.40;1996.80;;;;;;5094564;28;20077;-78
2022/07/15 01:14:48;;;;;;;15.10;9.13;;;589.30;2022.40;;;;;;5075674;28;20722;-78
2022/07/15 01:17:16;;;;;;;17.45;8.82;;;589.10;2048.00;;;;;;5094319;28;20477;-77
2022/07/15 01:19:41;;;;;;;19.83;10.18;;;563.90;2073.60;;;;;;5094461;28;20065;-80
2022/07/15 01:22:07;;;;;;;15.80;9.23;;;588.90;2073.60;;;;;;5094529;28;20027;-79
2022/07/15 01:24:34;;;;;;;15.70;9.57;;;589.00;2048.00;;;;;;5091414;28;20028;-78
2022/07/15 01:27:00;;;;;;;16.73;10.75;;;589.00;2048.00;;;;;;5094222;28;20024;-78
2022/07/15 01:29:27;;;;;;;17.48;10.65;;;589.10;2048.00;;;;;;5094065;28;20028;-80
2022/07/15 01:31:54;;;;;;;20.50;11.07;;;589.30;2022.40;;;;;;5073758;28;20526;-79
2022/07/15 01:34:20;;;;;;;17.20;10.50;;;589.30;2022.40;;;;;;5098638;28;20024;-79
2022/07/15 01:36:45;;;;;;;17.48;10.80;;;589.20;2022.40;;;;;;5103381;28;20401;-79
2022/07/15 01:39:11;;;;;;;23.90;11.55;;;589.20;2022.40;;;;;;5094006;28;20028;-78
2022/07/15 01:41:37;;;;;;;20.35;10.80;;;589.10;2048.00;;;;;;5093836;28;20484;-79
2022/07/15 01:44:03;;;;;;;23.88;10.10;;;589.20;2048.00;;;;;;5075692;28;20047;-78
2022/07/15 01:46:29;;;;;;;17.25;9.43;;;589.30;2048.00;;;;;;5093602;28;20028;-78
2022/07/15 01:51:39;;;;;;;20.25;9.77;;;589.20;2048.00;;;;;;5091901;28;20027;-79
2022/07/15 01:54:05;;;;;;;18.38;10.07;;;589.30;2022.40;;;;;;5093620;28;20020;-79
2022/07/15 01:56:31;;;;;;;14.93;9.05;;;589.30;2048.00;;;;;;5098513;28;20054;-79
2022/07/15 01:58:57;;;;;;;21.67;10.02;;;589.30;2048.00;;;;;;5102706;28;20347;-79
2022/07/15 02:01:22;;;;;;;17.20;10.77;;;589.20;2048.00;;;;;;5061279;28;20024;-79
2022/07/15 02:03:48;;;;;;;19.08;10.23;;;589.10;2073.60;;;;;;5094079;28;20024;-79
2022/07/15 02:06:14;;;;;;;17.08;10.10;;;589.10;2073.60;;;;;;5093888;28;20423;-79
2022/07/15 02:08:40;;;;;;;15.20;9.75;;;589.10;2073.60;;;;;;5075938;28;20416;-79
2022/07/15 02:11:07;;;;;;;16.27;8.60;;;589.10;2073.60;;;;;;5094247;28;20031;-80
2022/07/15 02:13:33;;;;;;;13.57;9.13;;;589.10;2073.60;;;;;;5094007;28;20745;-78
2022/07/15 02:15:59;;;;;;;16.35;8.10;;;589.10;2073.60;;;;;;5091974;28;20040;-77
2022/07/15 02:18:24;;;;;;;16.25;8.02;;;589.20;2073.60;;;;;;5093858;28;20019;-80
2022/07/15 02:20:50;;;;;;;13.50;7.15;;;589.30;2048.00;;;;;;5084478;28;20021;-80
2022/07/15 02:23:16;;;;;;;12.73;7.30;;;589.30;2048.00;;;;;;5089264;28;20027;-79
2022/07/15 02:25:42;;;;;;;13.38;7.28;;;589.30;2048.00;;;;;;5093736;28;20036;-80
2022/07/15 02:28:08;;;;;;;10.95;6.43;;;589.30;2073.60;;;;;;5093749;28;20059;-82
2022/07/15 02:30:38;;;;;;;11.32;6.80;;;589.30;2073.60;;;;;;5093821;28;20066;-78
2022/07/15 02:33:05;;;;;;;11.65;7.00;;;589.20;2073.60;;;;;;5081177;28;20024;-79
2022/07/15 02:35:31;;;;;;;13.82;5.97;;;589.10;2099.20;;;;;;5091738;28;20028;-79
2022/07/15 02:37:57;;;;;;;11.70;6.25;;;589.20;2099.20;;;;;;5093407;28;20027;-79
2022/07/15 02:40:23;;;;;;;17.85;6.47;;;589.20;2099.20;;;;;;5093475;28;20020;-78
2022/07/15 02:42:51;;;;;;;13.45;6.35;;;589.40;2073.60;;;;;;5093335;28;20031;-78
2022/07/15 02:45:22;;;;;;;11.38;6.32;;;589.40;2048.00;;;;;;5093354;28;20024;-78
2022/07/15 02:47:49;;;;;;;9.65;7.35;;;589.40;2022.40;;;;;;5085811;28;20020;-79
2022/07/15 02:50:16;;;;;;;15.32;6.43;;;589.60;2022.40;;;;;;5068678;28;20453;-78
2022/07/15 02:52:42;;;;;;;13.88;6.28;;;589.60;1996.80;;;;;;5093297;28;20031;-78
2022/07/15 02:55:09;;;;;;;12.63;6.63;;;589.70;1996.80;;;;;;5093008;28;20112;-80
2022/07/15 02:57:35;;;;;;;12.38;5.78;;;589.70;1996.80;;;;;;5107226;28;20081;-78
2022/07/15 03:00:04;;;;;;;12.57;6.18;;;589.70;1996.80;;;;;;5087052;28;20454;-79
2022/07/15 03:02:30;;;;;;;16.27;6.88;;;614.50;1945.60;;;;;;5085292;28;20078;-79
2022/07/15 03:04:56;;;;;;;13.57;6.25;;;614.50;1945.60;;;;;;5056447;28;20465;-78
2022/07/15 03:07:22;;;;;;;14.57;5.53;;;589.70;1971.20;;;;;;5083698;28;20028;-79
2022/07/15 03:09:48;;;;;;;9.77;5.45;;;589.70;1996.80;;;;;;5092244;28;20047;-78
2022/07/15 03:12:13;;;;;;;9.70;6.40;;;589.60;1996.80;;;;;;5085703;28;20086;-80
2022/07/15 03:14:40;;;;;;;11.85;6.15;;;589.60;2022.40;;;;;;5097063;28;20031;-78
2022/07/15 03:17:07;;;;;;;12.90;6.47;;;589.50;2048.00;;;;;;5096886;28;20127;-79
2022/07/15 03:19:33;;;;;;;15.20;5.75;;;589.30;2073.60;;;;;;5097063;28;20024;-78
2022/07/15 03:21:59;;;;;;;11.88;6.03;;;589.10;2099.20;;;;;;5096937;28;20469;-79
2022/07/15 03:24:24;;;;;;;10.32;5.95;;;589.10;2124.80;;;;;;5092235;28;20029;-78
2022/07/15 03:26:50;;;;;;;15.68;5.60;;;589.10;2124.80;;;;;;5093202;28;20490;-78
2022/07/15 03:29:16;;;;;;;18.95;6.57;;;589.10;2124.80;;;;;;5096876;28;20054;-78
2022/07/15 03:31:44;;;;;;;12.75;5.68;;;589.00;2150.40;;;;;;5096653;28;20449;-78
2022/07/15 03:34:10;;;;;;;12.52;5.63;;;588.90;2201.60;;;;;;5096645;28;20020;-78
2022/07/15 03:36:40;;;;;;;11.75;5.55;;;589.00;2176.00;;;;;;5095361;28;20089;-79
2022/07/15 03:39:07;;;;;;;12.68;5.75;;;589.00;2201.60;;;;;;5096594;28;20019;-78
2022/07/15 03:41:33;;;;;;;7.70;4.97;;;589.00;2201.60;;;;;;5084663;28;20067;-79
2022/07/15 03:44:00;;;;;;;19.27;6.95;;;588.80;2227.20;;;;;;5094458;28;20023;-79
2022/07/15 03:46:26;;;;;;;15.40;6.43;;;589.00;2252.80;;;;;;5096476;28;20047;-79
2022/07/15 03:48:53;;;;;;;10.93;5.82;;;588.90;2252.80;;;;;;5096447;28;20046;-78
2022/07/15 03:51:18;;;;;;;11.88;6.82;;;564.10;2278.40;;;;;;5096475;28;20077;-79
2022/07/15 03:53:44;;;;;;;12.13;5.43;;;564.10;2304.00;;;;;;5096450;28;20028;-77
2022/07/15 03:56:10;;;;;;;17.13;6.90;;;564.10;2329.60;;;;;;5098330;28;20093;-78
2022/07/15 03:58:36;;;;;;;16.00;6.72;;;564.00;2355.20;;;;;;5108088;28;20024;-76
2022/07/15 04:01:02;;;;;;;15.40;6.70;;;563.90;2406.40;;;;;;5095952;28;20035;-79
2022/07/15 04:03:27;;;;;;;14.40;6.00;;;563.80;2432.00;;;;;;5096396;28;20016;-79
2022/07/15 04:05:53;;;;;;;13.07;6.93;;;563.80;2432.00;;;;;;5065494;28;20032;-79
2022/07/15 04:08:19;;;;;;;13.88;6.28;;;563.90;2432.00;;;;;;5089793;28;20069;-79
2022/07/15 04:10:45;;;;;;;17.08;6.45;;;564.00;2432.00;;;;;;5097457;28;20028;-77
2022/07/15 04:13:11;;;;;;;10.05;6.05;;;564.00;2432.00;;;;;;5113033;28;20035;-79
2022/07/15 04:15:37;;;;;;;9.63;4.97;;;564.10;2432.00;;;;;;5071491;28;20033;-79
2022/07/15 04:18:03;;;;;;;10.48;5.72;;;564.10;2432.00;;;;;;5083182;28;20020;-83
2022/07/15 04:20:28;;;;;;;18.10;5.97;;;564.00;2432.00;;;;;;5090366;28;20028;-77
2022/07/15 04:22:54;;;;;;;12.48;5.35;;;564.10;2432.00;;;;;;5085515;28;20041;-77
2022/07/15 04:25:21;;;;;;;12.20;5.53;;;564.10;2406.40;;;;;;5063629;28;20032;-84
2022/07/15 04:27:48;;;;;;;55.58;10.30;;;588.90;2380.80;;;;;;5095650;28;20032;-76
2022/07/15 04:30:14;;;;;;;12.50;5.13;;;588.90;2355.20;;;;;;5095727;28;20043;-76
2022/07/15 04:32:40;;;;;;;9.93;4.60;;;589.00;2355.20;;;;;;5077430;28;20027;-75
2022/07/15 04:35:06;;;;;;;14.27;4.88;;;588.90;2278.40;;;;;;5095563;28;20130;-78
2022/07/15 04:37:32;;;;;;;11.00;4.63;;;589.50;2252.80;;;;;;5077238;28;20028;-75
2022/07/15 04:39:58;;;;;;;9.05;4.50;;;589.60;2227.20;;;;;;5095583;28;20076;-75
2022/07/15 04:42:24;;;;;;;9.63;4.20;;;614.40;2176.00;;;;;;5080777;28;20066;-74
2022/07/15 04:44:51;;;;;;;12.82;4.47;;;614.50;2150.40;;;;;;5095315;28;20023;-77
2022/07/15 04:47:17;;;;;;;12.13;5.18;;;614.40;2176.00;;;;;;5077003;28;20043;-74
2022/07/15 04:52:27;;;;;;;10.13;4.88;;;614.60;2150.40;;;;;;5093915;28;20074;-80
2022/07/15 04:54:54;;;;;;;7.45;4.60;;;614.60;2150.40;;;;;;5076419;28;20020;-75
2022/07/15 04:57:20;;;;;;;8.95;4.90;;;614.70;2150.40;;;;;;5095018;28;20051;-76
2022/07/15 04:59:46;;;;;;;12.48;6.07;;;614.70;2150.40;;;;;;5095183;28;20051;-76
2022/07/15 05:02:12;;;;;;;8.50;4.40;;;614.80;2099.20;;;;;;5066615;28;20120;-76
2022/07/15 05:04:41;;;;;;;11.05;5.00;;;614.80;2099.20;;;;;;5088276;28;20166;-80
2022/07/15 05:07:07;;;;;;;7.00;4.78;;;615.00;2048.00;;;;;;5076896;28;20470;-77
2022/07/15 05:09:33;;;;;;;6.57;4.10;;;615.10;2073.60;;;;;;5062718;28;20028;-77
2022/07/15 05:11:59;;;;;;;8.02;4.70;;;615.20;2073.60;;;;;;5070144;28;20020;-79
2022/07/15 05:14:25;;;;;;;9.77;5.30;;;615.20;2048.00;;;;;;5087171;28;20603;-77
2022/07/15 05:16:51;;;;;;;11.65;4.68;;;615.20;2048.00;;;;;;5094494;28;20103;-77
2022/07/15 05:19:17;;;;;;;9.02;4.47;;;615.30;2022.40;;;;;;5094789;28;20030;-77
2022/07/15 05:21:42;;;;;;;12.55;5.30;;;640.00;2022.40;;;;;;5093345;28;20101;-77
2022/07/15 05:24:08;;;;;;;9.10;4.65;;;640.00;2022.40;;;;;;5067372;28;20024;-76
2022/07/15 05:26:34;;;;;;;12.80;5.03;;;640.00;2022.40;;;;;;5070780;28;20033;-76
2022/07/15 05:29:00;;;;;;;11.60;5.38;;;640.10;2022.40;;;;;;5069836;28;20024;-78
2022/07/15 05:31:27;;;;;;;13.20;4.35;;;640.20;2022.40;;;;;;5086967;28;20031;-77
2022/07/15 05:33:54;;;;;;;12.32;4.43;;;640.40;1971.20;;;;;;5056781;28;20033;-76
2022/07/15 05:36:20;;;;;;;12.38;5.25;;;640.50;1945.60;;;;;;5067077;28;20130;-76
2022/07/15 05:38:46;;;;;;;7.55;4.13;;;640.60;1920.00;;;;;;5094086;28;20023;-79
2022/07/15 05:41:12;;;;;;;7.97;4.75;;;640.70;1945.60;;;;;;5092580;28;20489;-79
2022/07/15 05:43:38;;;;;;;8.98;4.13;;;640.80;1920.00;;;;;;5093172;28;20024;-77
2022/07/15 05:46:05;;;;;;;14.13;4.35;;;640.90;1868.80;;;;;;5081244;28;20536;-77
2022/07/15 05:48:31;;;;;;;10.00;4.75;;;665.60;1920.00;;;;;;5076179;28;20054;-81
2022/07/15 05:50:57;;;;;;;17.45;5.93;;;665.70;1920.00;;;;;;5056505;28;20047;-77
2022/07/15 05:53:23;;;;;;;16.65;4.82;;;665.90;1920.00;;;;;;5085401;28;20024;-77
2022/07/15 05:55:49;;;;;;;9.48;4.72;;;665.90;1894.40;;;;;;5092539;28;20043;-84
2022/07/15 05:58:14;;;;;;;16.50;4.90;;;666.10;1868.80;;;;;;5076729;28;20032;-81
2022/07/15 06:00:40;;;;;;;11.45;5.07;;;666.10;1868.80;;;;;;5107789;28;20076;-78
2022/07/15 06:03:06;;;;;;;10.05;4.63;;;666.20;1894.40;;;;;;5097081;28;20026;-80
2022/07/15 06:05:33;;;;;;;10.43;4.07;;;666.30;1868.80;;;;;;5092912;28;20513;-79
2022/07/15 06:07:59;;;;;;;11.38;5.05;;;666.40;1843.20;;;;;;5074694;28;20070;-78
2022/07/15 06:10:25;;;;;;;7.30;4.10;;;666.50;1817.60;;;;;;5063170;28;20469;-80
2022/07/15 06:12:52;;;;;;;10.35;5.10;;;691.20;1817.60;;;;;;5075485;28;20549;-79
2022/07/15 06:15:19;;;;;;;15.45;5.45;;;691.30;1792.00;;;;;;5093561;28;20114;-79
2022/07/15 06:17:45;;;;;;;12.60;4.55;;;691.40;1766.40;;;;;;5075470;28;20056;-80
2022/07/15 06:20:11;;;;;;;10.00;4.32;;;691.50;1766.40;;;;;;5079446;28;20027;-80
2022/07/15 06:22:37;;;;;;;18.38;5.40;;;691.60;1766.40;;;;;;5103753;28;20358;-77
2022/07/15 06:25:03;;;;;;;14.73;4.95;;;691.60;1766.40;;;;;;5093275;28;20080;-79
2022/07/15 06:27:30;;;;;;;11.00;4.75;;;691.70;1740.80;;;;;;5075415;28;20035;-79
2022/07/15 06:29:57;;;;;;;7.80;4.47;;;691.90;1740.80;;;;;;5107726;28;20092;-75
2022/07/15 06:32:23;;;;;;;9.27;4.43;;;691.90;1715.20;;;;;;5093692;28;20061;-81
2022/07/15 06:34:49;;;;;;;13.32;4.68;;;692.00;1715.20;;;;;;5093761;28;20024;-80
2022/07/15 06:37:14;;;;;;;16.02;5.57;;;692.10;1715.20;;;;;;5093279;28;20043;-77
2022/07/15 06:39:40;;;;;;;11.20;5.15;;;716.80;1715.20;;;;;;5064818;28;20028;-76
2022/07/15 06:42:06;;;;;;;13.20;4.82;;;716.90;1689.60;;;;;;5070048;28;20102;-79
2022/07/15 06:44:32;;;;;;;9.50;4.50;;;716.90;1689.60;;;;;;5105155;28;20062;-77
2022/07/15 06:46:57;;;;;;;11.05;4.32;;;716.90;1689.60;;;;;;5102558;28;20046;-78
2022/07/15 06:49:23;;;;;;;10.82;4.32;;;716.90;1689.60;;;;;;5071553;28;20111;-76
2022/07/15 06:51:49;;;;;;;10.07;4.85;;;717.10;1689.60;;;;;;5082305;28;20561;-77
2022/07/15 06:54:15;;;;;;;9.35;4.60;;;717.30;1664.00;;;;;;5093036;28;20039;-76
2022/07/15 06:56:41;;;;;;;10.90;4.28;;;717.40;1664.00;;;;;;5092929;28;20052;-76
2022/07/15 06:59:07;;;;;;;9.48;4.43;;;717.40;1612.80;;;;;;5091390;28;20039;-76
2022/07/15 07:01:33;;;;;;;15.95;4.45;;;717.50;1612.80;;;;;;5069542;28;20549;-76
2022/07/15 07:03:59;;;;;;;10.48;3.45;;;717.70;1612.80;;;;;;5084507;28;20378;-77
2022/07/15 07:06:26;;;;;;;10.25;3.83;;;742.40;1612.80;;;;;;5098630;28;20017;-76
2022/07/15 07:08:52;;;;;;;11.65;3.78;;;742.50;1612.80;;;;;;5065301;28;20023;-78
2022/07/15 07:11:19;;;;;;;7.07;3.60;;;742.70;1587.20;;;;;;5088669;28;20058;-78
2022/07/15 07:13:45;;;;;;;12.13;3.65;;;742.70;1561.60;;;;;;5075066;28;20499;-77
2022/07/15 07:16:11;;;;;;;15.15;3.50;;;742.80;1536.00;;;;;;5092818;28;20036;-77
2022/07/15 07:18:37;;;;;;;9.48;3.90;;;742.90;1510.40;;;;;;5092872;28;20131;-78
2022/07/15 07:21:03;;;;;;;8.43;3.25;;;743.00;1510.40;;;;;;5074200;28;20127;-77
2022/07/15 07:23:30;;;;;;;7.00;2.95;;;743.10;1510.40;;;;;;5092892;28;20531;-78
2022/07/15 07:25:56;;;;;;;8.77;3.58;;;743.30;1484.80;;;;;;5092693;28;20028;-76
2022/07/15 07:28:22;;;;;;;7.63;2.95;;;768.10;1484.80;;;;;;5092662;28;20032;-76
2022/07/15 07:30:50;;;;;;;9.57;3.75;;;768.20;1408.00;;;;;;5084283;28;20036;-77
2022/07/15 07:33:16;;;;;;;7.57;3.75;;;768.30;1356.80;;;;;;5087057;28;20020;-77
2022/07/15 07:35:43;;;;;;;9.20;3.63;;;768.50;1356.80;;;;;;5067850;28;20058;-76
2022/07/15 07:38:09;;;;;;;7.55;3.25;;;768.50;1356.80;;;;;;5067385;28;20530;-76
2022/07/15 07:40:35;;;;;;;9.00;3.72;;;768.60;1356.80;;;;;;5092619;28;20028;-77
2022/07/15 07:43:01;;;;;;;9.55;3.97;;;768.60;1331.20;;;;;;5097183;28;20115;-78
2022/07/15 07:45:28;;;;;;;6.45;3.90;;;768.80;1331.20;;;;;;5101872;28;20028;-78
2022/07/15 07:47:55;;;;;;;18.58;3.78;;;768.80;1305.60;;;;;;5079322;28;20118;-84
2022/07/15 07:50:21;;;;;;;10.43;3.50;;;793.70;1356.80;;;;;;5075547;28;20024;-79
2022/07/15 07:52:47;;;;;;;10.98;3.38;;;793.70;1331.20;;;;;;5087199;28;20035;-79
2022/07/15 07:55:14;;;;;;;16.25;3.70;;;793.80;1305.60;;;;;;5069833;28;20111;-78
2022/07/15 07:57:51;;;;;;;13.05;5.00;;;794.00;1331.20;;;;;;5096180;28;20036;-77
2022/07/15 08:00:18;;;;;;;12.18;4.20;;;794.10;1305.60;;;;;;5078016;28;20025;-78
2022/07/15 08:02:44;;;;;;;9.23;4.30;;;794.20;1305.60;;;;;;5096024;28;20051;-78
2022/07/15 08:05:11;;;;;;;10.57;4.80;;;794.20;1305.60;;;;;;5102591;28;20097;-78
2022/07/15 08:07:37;;;;;;;11.55;5.07;;;794.20;1280.00;;;;;;5085612;28;20027;-78
2022/07/15 08:10:04;;;;;;;10.02;4.85;;;794.30;1305.60;;;;;;5077822;28;20024;-77
2022/07/15 08:12:30;;;;;;;8.63;4.65;;;794.30;1280.00;;;;;;5095985;28;20028;-78
2022/07/15 08:14:56;;;;;;;9.52;4.07;;;794.30;1280.00;;;;;;5095370;28;20024;-77
2022/07/15 08:17:22;;;;;;;9.48;4.93;;;794.30;1254.40;;;;;;5076301;28;20047;-77
2022/07/15 08:19:48;;;;;;;10.07;3.67;;;794.40;1254.40;;;;;;5077435;28;20465;-77
2022/07/15 08:22:14;;;;;;;7.38;2.90;;;794.40;1203.20;;;;;;5095965;28;20039;-79
2022/07/15 08:24:40;;;;;;;10.00;4.20;;;819.20;1228.80;;;;;;5077386;28;20107;-77
2022/07/15 08:27:06;;;;;;;9.82;3.42;;;819.30;1203.20;;;;;;5095705;28;20016;-77
2022/07/15 08:29:32;;;;;;;6.00;3.35;;;819.30;1203.20;;;;;;5077178;28;20035;-77
2022/07/15 08:31:58;;;;;;;9.50;3.25;;;819.30;1177.60;;;;;;5077584;28;20105;-78
2022/07/15 08:34:23;;;;;;;9.05;3.47;;;819.40;1203.20;;;;;;5076787;28;20119;-76
2022/07/15 08:36:49;;;;;;;9.27;3.65;;;819.50;1177.60;;;;;;5077212;28;20037;-77
2022/07/15 08:39:15;;;;;;;8.90;3.22;;;819.60;1177.60;;;;;;5095491;28;20091;-77
2022/07/15 08:41:41;;;;;;;8.88;4.75;;;819.60;1203.20;;;;;;5095167;28;20488;-77
2022/07/15 08:44:07;;;;;;;7.15;3.40;;;819.70;1203.20;;;;;;5094916;28;20028;-78
2022/07/15 08:46:35;;;;;;;8.55;3.40;;;819.60;1177.60;;;;;;5068435;28;20059;-78
2022/07/15 08:49:12;;;;;;;6.22;3.10;;;819.60;1177.60;;;;;;5067530;28;20048;-77
2022/07/15 08:51:43;;;;;;;5.57;2.63;;;819.70;1177.60;;;;;;5092974;28;20059;-77
2022/07/15 08:54:09;;;;;;;6.07;2.60;;;819.80;1152.00;;;;;;5076598;28;20036;-79
2022/07/15 08:56:35;;;;;;;5.65;3.00;;;819.70;1152.00;;;;;;5076519;28;20044;-77
2022/07/15 08:59:06;;;;;;;5.22;2.42;;;819.80;1152.00;;;;;;5077010;28;20052;-78
2022/07/15 09:01:40;;;;;;;12.77;2.40;;;819.90;1152.00;;;;;;5109226;28;20027;-77
2022/07/15 09:04:06;;;;;;;4.80;2.70;;;819.80;1100.80;;;;;;5083169;28;20131;-77
2022/07/15 09:06:36;;;;;;;8.95;2.45;;;819.80;1100.80;;;;;;5066759;28;20040;-78
2022/07/15 09:09:29;;;;;;;4.50;2.38;;;820.00;1100.80;;;;;;5073326;28;20036;-79
2022/07/15 09:12:05;;;;;;;4.55;2.70;;;820.00;1075.20;;;;;;5095475;28;20020;-77
2022/07/15 09:14:33;;;;;;;5.45;2.83;;;820.00;1075.20;;;;;;5076650;28;20064;-80
2022/07/15 09:17:17;;;;;;;4.22;2.70;;;844.80;1126.40;;;;;;5076683;28;20044;-82
2022/07/15 09:19:57;;;;;;;7.65;3.30;;;;;;;;;;5094894;28;20020;-84
2022/07/15 09:22:23;;;;;;;4.85;2.30;;;845.00;1126.40;;;;;;5095920;28;20354;-83
2022/07/15 09:25:06;;;;;;;5.18;3.17;;;845.10;1100.80;;;;;;5076989;28;20081;-79
2022/07/15 09:27:37;;;;;;;12.98;3.55;;;845.20;1100.80;;;;;;5068256;28;20045;-79
2022/07/15 09:36:02;;;;;;;4.47;2.35;;;845.40;1075.20;;;;;;5082284;28;20039;-80
2022/07/15 09:38:40;;;;;;;7.40;2.83;;;845.40;1075.20;;;;;;5094401;28;20012;-78
2022/07/15 09:41:20;;;;;;;10.35;2.25;;;845.50;1075.20;;;;;;5093855;28;20020;-80
2022/07/15 09:43:49;;;;;;;70.85;7.78;;;845.60;1049.60;;;;;;5083346;28;20028;-82
2022/07/15 09:46:16;;;;;;;5.10;2.40;;;845.70;1049.60;;;;;;5071055;28;20031;-80
2022/07/15 09:48:44;;;;;;;10.93;2.35;;;870.60;1075.20;;;;;;5075407;28;20070;-80
2022/07/15 09:51:11;;;;;;;4.32;2.40;;;870.60;1024.00;;;;;;5100052;28;20073;-79
2022/07/15 09:53:38;;;;;;;7.80;2.28;;;870.60;1049.60;;;;;;5103154;28;20114;-81
2022/07/15 09:56:06;;;;;;;3.85;2.15;;;870.70;1024.00;;;;;;5101150;28;20051;-82
2022/07/15 09:58:32;;;;;;;5.70;2.72;;;870.80;1024.00;;;;;;5094526;28;20028;-84
2022/07/15 10:00:58;;;;;;;5.45;2.17;;;870.90;1049.60;;;;;;5106178;28;20491;-86
2022/07/15 10:03:24;;;;;;;5.00;2.20;;;871.20;998.40;;;;;;5094920;28;20024;-88
2022/07/15 10:05:53;;;;;;;6.18;2.88;;;871.30;998.40;;;;;;5087154;28;20105;-88
2022/07/15 10:08:20;;;;;;;7.60;2.65;;;896.00;998.40;;;;;;5099554;28;20019;-87
2022/07/15 10:10:49;;;;;;;6.72;2.40;;;896.20;998.40;;;;;;5103918;28;20077;-80
2022/07/15 10:13:29;;;;;;;8.50;2.67;;;896.40;998.40;;;;;;5107358;28;20039;-79
2022/07/15 10:16:30;;;;;;;6.75;2.88;;;896.70;972.80;;;;;;5083539;28;20068;-82
2022/07/15 10:19:14;;;;;;;5.70;2.60;;;896.90;947.20;;;;;;5084022;28;20031;-85
2022/07/15 10:22:11;;;;;;;7.53;2.00;;;896.90;972.80;;;;;;5082795;28;20024;-84
2022/07/15 10:24:55;;;;;;;11.00;3.00;;;921.60;998.40;;;;;;5093638;28;20020;-87
2022/07/15 10:27:51;;;;;;;6.05;2.58;;;921.80;947.20;;;;;;5076444;28;20074;-78
2022/07/15 10:30:24;;;;;;;5.20;2.33;;;921.80;921.60;;;;;;5094229;28;20110;-87
2022/07/15 10:33:18;;;;;;;4.05;2.33;;;921.80;921.60;;;;;;5075309;28;20111;-88
2022/07/15 10:35:49;;;;;;;6.80;2.80;;;921.70;947.20;;;;;;5069437;28;20032;-85
2022/07/15 10:38:29;;;;;;;5.53;2.47;;;921.80;947.20;;;;;;5094219;28;20485;-81
2022/07/15 10:41:12;;;;;;;5.30;2.13;;;921.90;947.20;;;;;;5075926;28;20028;-87
2022/07/15 10:43:39;;;;;;;4.00;2.65;;;921.80;921.60;;;;;;5066121;28;20082;-83
2022/07/15 10:46:17;;;;;;;6.55;2.47;;;921.80;921.60;;;;;;5080769;28;20112;-83
2022/07/15 10:48:43;;;;;;;6.55;2.03;;;922.00;921.60;;;;;;5062643;28;20056;-80
2022/07/15 10:51:10;;;;;;;6.30;2.35;;;922.00;947.20;;;;;;5074254;28;20039;-82
2022/07/15 10:53:48;;;;;;;6.68;2.20;;;922.20;921.60;;;;;;5093790;28;20100;-82
2022/07/15 10:56:36;;;;;;;4.03;2.10;;;922.30;921.60;;;;;;5094194;28;20045;-88
2022/07/15 10:59:21;;;;;;;7.10;2.30;;;922.10;896.00;;;;;;5084962;28;20114;-83
2022/07/15 11:01:49;;;;;;;6.10;2.53;;;922.10;921.60;;;;;;5066791;28;20031;-83
2022/07/15 11:04:23;;;;;;;5.70;2.47;;;922.30;921.60;;;;;;5086984;28;20043;-84
2022/07/15 11:07:06;;;;;;;6.00;2.13;;;922.40;921.60;;;;;;5085807;28;20024;-80
2022/07/15 11:10:02;;;;;;;4.80;2.00;;;922.50;896.00;;;;;;5075260;28;20027;-83
2022/07/15 11:12:28;;;;;;;;;;;922.50;870.40;;;;;;5083710;28;20039;-85
2022/07/15 11:14:56;;;;;;;13.07;5.50;;;922.50;896.00;;;;;;5057201;28;20278;-84
2022/07/15 11:17:29;;;;;;;8.88;2.60;;;947.20;896.00;;;;;;5066060;28;20098;-78
2022/07/15 11:20:08;;;;;;;11.35;4.68;;;947.20;870.40;;;;;;5100200;28;20517;-84
2022/07/15 11:22:36;;;;;;;7.13;5.30;;;947.20;896.00;;;;;;5083331;28;20028;-82
2022/07/15 11:25:06;;;;;;;4.78;3.10;;;947.50;896.00;;;;;;5078347;28;20032;-84
2022/07/15 11:27:32;;;;;;;10.68;3.50;;;947.60;870.40;;;;;;5077537;28;20028;-81
2022/07/15 11:30:03;;;;;;;9.70;4.75;;;947.60;870.40;;;;;;5077729;28;20038;-85
2022/07/15 11:32:33;;;;;;;4.20;3.15;;;947.50;870.40;;;;;;5078757;28;20028;-82
2022/07/15 11:35:05;;;;;;;6.30;2.20;;;947.70;870.40;;;;;;5094205;28;20016;-82
2022/07/15 11:37:36;;;;;;;5.40;2.53;;;947.70;896.00;;;;;;5087046;28;20116;-80
2022/07/15 11:45:47;;;;;;;8.07;2.50;;;947.80;896.00;;;;;;5089478;28;20427;-82
2022/07/15 11:48:14;;;;;;;6.85;2.35;;;947.90;896.00;;;;;;5069233;28;20028;-80
2022/07/15 11:50:51;;;;;;;3.45;2.30;;;947.90;896.00;;;;;;5068375;28;20025;-83
2022/07/15 11:53:17;;;;;;;3.47;2.13;;;947.80;870.40;;;;;;5068967;28;20477;-82
2022/07/15 11:55:54;;;;;;;5.22;2.40;;;947.90;870.40;;;;;;5068591;28;20040;-81
2022/07/15 11:58:36;;;;;;;7.78;2.70;;;948.00;896.00;;;;;;5086033;28;20498;-82
2022/07/15 12:01:12;;;;;;;3.33;2.35;;;972.80;921.60;;;;;;5068577;28;20549;-82
2022/07/15 12:03:40;;;;;;;3.88;1.83;;;948.10;896.00;;;;;;5084080;28;20021;-83
2022/07/15 12:06:06;;;;;;;3.72;1.90;;;947.60;896.00;;;;;;5115068;28;20015;-84
2022/07/15 12:08:47;;;;;;;6.78;2.88;;;922.50;896.00;;;;;;5109651;28;20372;-84
2022/07/15 12:11:25;;;;;;;5.30;2.55;;;922.10;947.20;;;;;;5095991;28;20126;-80
2022/07/15 12:14:11;;;;;;;13.18;3.20;;;922.00;972.80;;;;;;5091874;28;20362;-81
2022/07/15 12:16:39;;;;;;;7.68;3.00;;;922.50;947.20;;;;;;5069318;28;20089;-79
2022/07/15 12:19:15;;;;;;;5.55;2.55;;;947.50;947.20;;;;;;5085576;28;20421;-81
2022/07/15 12:21:42;;;;;;;6.50;2.58;;;947.50;947.20;;;;;;5086782;28;20070;-80
2022/07/15 12:24:16;;;;;;;4.22;2.35;;;947.30;921.60;;;;;;5084648;28;20477;-81
2022/07/15 12:27:02;;;;;;;6.13;2.60;;;947.20;921.60;;;;;;5075404;28;20043;-80
2022/07/15 12:29:31;;;;;;;4.75;2.38;;;947.60;921.60;;;;;;5068339;28;20025;-82
2022/07/15 12:31:58;;;;;;;5.97;2.47;;;947.90;896.00;;;;;;5068718;28;20107;-80
2022/07/15 12:34:46;;;;;;;6.20;2.03;;;948.00;896.00;;;;;;5066539;28;20390;-81
2022/07/15 12:37:29;;;;;;;4.30;2.17;;;972.80;921.60;;;;;;5071245;28;20036;-82
2022/07/15 12:40:04;;;;;;;7.32;2.38;;;972.80;896.00;;;;;;5059065;28;20466;-83